sensor_id;sensor_type;location;lat;lon;timestamp;P1;durP1;ratioP1;P2;durP2;ratioP2
59659;SDS011;45534;52.690;6.268;2022-08-19T00:00:18;6.38;;;4.35;;
59659;SDS011;45534;52.690;6.268;2022-08-19T00:02:44;6.50;;;4.13;;
59659;SDS011;45534;52.690;6.268;2022-08-19T00:05:11;6.65;;;4.25;;
59659;SDS011;45534;52.690;6.268;2022-08-19T00:07:38;9.05;;;5.10;;
59659;SDS011;45534;52.690;6.268;2022-08-19T00:10:05;19.10;;;14.70;;
59659;SDS011;45534;52.690;6.268;2022-08-19T00:12:32;20.25;;;16.02;;
59659;SDS011;45534;52.690;6.268;2022-08-19T00:14:58;7.22;;;5.38;;
59659;SDS011;45534;52.690;6.268;2022-08-19T00:17:24;7.45;;;5.70;;
59659;SDS011;45534;52.690;6.268;2022-08-19T00:19:50;10.90;;;6.18;;
59659;SDS011;45534;52.690;6.268;2022-08-19T00:22:16;8.23;;;5.43;;
59659;SDS011;45534;52.690;6.268;2022-08-19T00:24:43;9.35;;;6.15;;
59659;SDS011;45534;52.690;6.268;2022-08-19T00:27:10;9.43;;;5.80;;
59659;SDS011;45534;52.690;6.268;2022-08-19T00:29:36;11.35;;;6.03;;
59659;SDS011;45534;52.690;6.268;2022-08-19T00:32:03;8.93;;;5.53;;
59659;SDS011;45534;52.690;6.268;2022-08-19T00:34:29;11.43;;;6.60;;
59659;SDS011;45534;52.690;6.268;2022-08-19T00:36:55;9.35;;;6.72;;
59659;SDS011;45534;52.690;6.268;2022-08-19T00:39:21;9.63;;;6.20;;
59659;SDS011;45534;52.690;6.268;2022-08-19T00:41:47;8.73;;;5.25;;
59659;SDS011;45534;52.690;6.268;2022-08-19T00:44:15;8.80;;;6.15;;
59659;SDS011;45534;52.690;6.268;2022-08-19T00:46:42;8.13;;;5.28;;
59659;SDS011;45534;52.690;6.268;2022-08-19T00:49:19;9.05;;;5.13;;
59659;SDS011;45534;52.690;6.268;2022-08-19T00:51:51;11.27;;;6.07;;
59659;SDS011;45534;52.690;6.268;2022-08-19T00:54:22;13.43;;;6.20;;
59659;SDS011;45534;52.690;6.268;2022-08-19T00:56:48;10.10;;;6.72;;
59659;SDS011;45534;52.690;6.268;2022-08-19T00:59:15;6.07;;;4.60;;
59659;SDS011;45534;52.690;6.268;2022-08-19T01:01:43;15.05;;;13.07;;
59659;SDS011;45534;52.690;6.268;2022-08-19T01:04:10;12.52;;;6.32;;
59659;SDS011;45534;52.690;6.268;2022-08-19T01:06:37;8.55;;;5.72;;
59659;SDS011;45534;52.690;6.268;2022-08-19T01:09:04;9.35;;;5.65;;
59659;SDS011;45534;52.690;6.268;2022-08-19T01:11:31;9.52;;;6.50;;
59659;SDS011;45534;52.690;6.268;2022-08-19T01:13:59;8.35;;;5.32;;
59659;SDS011;45534;52.690;6.268;2022-08-19T01:16:26;8.63;;;5.30;;
59659;SDS011;45534;52.690;6.268;2022-08-19T01:18:53;11.20;;;7.50;;
59659;SDS011;45534;52.690;6.268;2022-08-19T01:24:04;8.18;;;5.65;;
59659;SDS011;45534;52.690;6.268;2022-08-19T01:26:30;8.88;;;6.78;;
59659;SDS011;45534;52.690;6.268;2022-08-19T01:28:57;8.10;;;5.05;;
59659;SDS011;45534;52.690;6.268;2022-08-19T01:31:25;8.48;;;5.32;;
59659;SDS011;45534;52.690;6.268;2022-08-19T01:33:56;16.83;;;7.07;;
59659;SDS011;45534;52.690;6.268;2022-08-19T01:39:04;9.15;;;6.95;;
59659;SDS011;45534;52.690;6.268;2022-08-19T01:41:34;10.55;;;6.25;;
59659;SDS011;45534;52.690;6.268;2022-08-19T01:44:00;13.07;;;7.22;;
59659;SDS011;45534;52.690;6.268;2022-08-19T01:46:28;14.52;;;7.65;;
59659;SDS011;45534;52.690;6.268;2022-08-19T01:48:55;10.35;;;8.35;;
59659;SDS011;45534;52.690;6.268;2022-08-19T01:51:21;9.07;;;5.50;;
59659;SDS011;45534;52.690;6.268;2022-08-19T01:53:47;9.32;;;5.90;;
59659;SDS011;45534;52.690;6.268;2022-08-19T01:56:14;10.07;;;5.93;;
59659;SDS011;45534;52.690;6.268;2022-08-19T01:58:41;10.77;;;7.43;;
59659;SDS011;45534;52.690;6.268;2022-08-19T02:01:11;11.50;;;6.88;;
59659;SDS011;45534;52.690;6.268;2022-08-19T02:03:38;10.18;;;6.35;;
59659;SDS011;45534;52.690;6.268;2022-08-19T02:06:04;11.77;;;7.20;;
59659;SDS011;45534;52.690;6.268;2022-08-19T02:08:30;5.10;;;3.58;;
59659;SDS011;45534;52.690;6.268;2022-08-19T02:10:57;6.55;;;4.53;;
59659;SDS011;45534;52.690;6.268;2022-08-19T02:13:23;11.27;;;6.35;;
59659;SDS011;45534;52.690;6.268;2022-08-19T02:15:50;8.73;;;5.95;;
59659;SDS011;45534;52.690;6.268;2022-08-19T02:18:16;9.43;;;7.13;;
59659;SDS011;45534;52.690;6.268;2022-08-19T02:20:42;8.93;;;5.50;;
59659;SDS011;45534;52.690;6.268;2022-08-19T02:23:08;11.75;;;6.38;;
59659;SDS011;45534;52.690;6.268;2022-08-19T02:25:36;17.00;;;7.97;;
59659;SDS011;45534;52.690;6.268;2022-08-19T02:28:02;9.85;;;5.90;;
59659;SDS011;45534;52.690;6.268;2022-08-19T02:30:28;10.23;;;6.65;;
59659;SDS011;45534;52.690;6.268;2022-08-19T02:32:53;4.15;;;3.60;;
59659;SDS011;45534;52.690;6.268;2022-08-19T02:35:19;7.25;;;4.32;;
59659;SDS011;45534;52.690;6.268;2022-08-19T02:37:45;4.78;;;4.30;;
59659;SDS011;45534;52.690;6.268;2022-08-19T02:40:30;6.95;;;4.28;;
59659;SDS011;45534;52.690;6.268;2022-08-19T02:43:01;6.43;;;4.78;;
59659;SDS011;45534;52.690;6.268;2022-08-19T02:45:31;9.48;;;5.78;;
59659;SDS011;45534;52.690;6.268;2022-08-19T02:47:58;10.77;;;7.03;;
59659;SDS011;45534;52.690;6.268;2022-08-19T02:50:24;9.93;;;5.53;;
59659;SDS011;45534;52.690;6.268;2022-08-19T02:52:49;9.68;;;5.90;;
59659;SDS011;45534;52.690;6.268;2022-08-19T02:55:15;10.32;;;4.72;;
59659;SDS011;45534;52.690;6.268;2022-08-19T02:57:41;5.35;;;4.72;;
59659;SDS011;45534;52.690;6.268;2022-08-19T03:00:07;8.27;;;4.72;;
59659;SDS011;45534;52.690;6.268;2022-08-19T03:02:35;7.13;;;4.25;;
59659;SDS011;45534;52.690;6.268;2022-08-19T03:05:02;6.20;;;3.95;;
59659;SDS011;45534;52.690;6.268;2022-08-19T03:07:29;7.65;;;4.63;;
59659;SDS011;45534;52.690;6.268;2022-08-19T03:09:55;8.93;;;5.68;;
59659;SDS011;45534;52.690;6.268;2022-08-19T03:12:21;8.23;;;4.97;;
59659;SDS011;45534;52.690;6.268;2022-08-19T03:14:47;12.63;;;4.93;;
59659;SDS011;45534;52.690;6.268;2022-08-19T03:17:12;9.18;;;5.30;;
59659;SDS011;45534;52.690;6.268;2022-08-19T03:19:38;7.93;;;5.40;;
59659;SDS011;45534;52.690;6.268;2022-08-19T03:22:04;10.68;;;6.95;;
59659;SDS011;45534;52.690;6.268;2022-08-19T03:24:30;10.05;;;5.75;;
59659;SDS011;45534;52.690;6.268;2022-08-19T03:26:56;8.48;;;5.45;;
59659;SDS011;45534;52.690;6.268;2022-08-19T03:29:24;13.05;;;6.57;;
59659;SDS011;45534;52.690;6.268;2022-08-19T03:31:51;10.38;;;5.65;;
59659;SDS011;45534;52.690;6.268;2022-08-19T03:34:20;9.85;;;6.53;;
59659;SDS011;45534;52.690;6.268;2022-08-19T03:36:54;13.43;;;7.13;;
59659;SDS011;45534;52.690;6.268;2022-08-19T03:39:21;15.82;;;11.45;;
59659;SDS011;45534;52.690;6.268;2022-08-19T03:41:49;15.82;;;9.15;;
59659;SDS011;45534;52.690;6.268;2022-08-19T03:44:17;16.80;;;8.75;;
59659;SDS011;45534;52.690;6.268;2022-08-19T03:46:54;14.30;;;7.35;;
59659;SDS011;45534;52.690;6.268;2022-08-19T03:49:23;12.77;;;8.27;;
59659;SDS011;45534;52.690;6.268;2022-08-19T03:51:52;13.75;;;7.10;;
59659;SDS011;45534;52.690;6.268;2022-08-19T03:54:20;11.32;;;8.90;;
59659;SDS011;45534;52.690;6.268;2022-08-19T03:56:48;12.90;;;8.30;;
59659;SDS011;45534;52.690;6.268;2022-08-19T03:59:17;13.75;;;8.45;;
59659;SDS011;45534;52.690;6.268;2022-08-19T04:01:45;15.35;;;9.50;;
59659;SDS011;45534;52.690;6.268;2022-08-19T04:04:11;13.30;;;9.80;;
59659;SDS011;45534;52.690;6.268;2022-08-19T04:06:37;12.32;;;8.30;;
59659;SDS011;45534;52.690;6.268;2022-08-19T04:09:04;16.00;;;10.10;;
59659;SDS011;45534;52.690;6.268;2022-08-19T04:11:37;13.27;;;8.32;;
59659;SDS011;45534;52.690;6.268;2022-08-19T04:14:12;13.00;;;9.25;;
59659;SDS011;45534;52.690;6.268;2022-08-19T04:16:40;14.38;;;8.52;;
59659;SDS011;45534;52.690;6.268;2022-08-19T04:19:06;13.35;;;9.57;;
59659;SDS011;45534;52.690;6.268;2022-08-19T04:21:32;19.48;;;9.75;;
59659;SDS011;45534;52.690;6.268;2022-08-19T04:23:58;14.07;;;9.88;;
59659;SDS011;45534;52.690;6.268;2022-08-19T04:26:29;13.90;;;8.88;;
59659;SDS011;45534;52.690;6.268;2022-08-19T04:28:57;17.10;;;8.52;;
59659;SDS011;45534;52.690;6.268;2022-08-19T04:31:26;14.25;;;9.07;;
59659;SDS011;45534;52.690;6.268;2022-08-19T04:33:58;15.43;;;10.35;;
59659;SDS011;45534;52.690;6.268;2022-08-19T04:36:29;14.98;;;8.52;;
59659;SDS011;45534;52.690;6.268;2022-08-19T04:39:00;9.40;;;5.85;;
59659;SDS011;45534;52.690;6.268;2022-08-19T04:41:30;14.48;;;7.55;;
59659;SDS011;45534;52.690;6.268;2022-08-19T04:44:16;9.55;;;6.82;;
59659;SDS011;45534;52.690;6.268;2022-08-19T04:46:46;10.88;;;7.10;;
59659;SDS011;45534;52.690;6.268;2022-08-19T04:49:13;12.77;;;8.82;;
59659;SDS011;45534;52.690;6.268;2022-08-19T04:51:41;18.42;;;7.97;;
59659;SDS011;45534;52.690;6.268;2022-08-19T04:54:08;15.13;;;10.43;;
59659;SDS011;45534;52.690;6.268;2022-08-19T04:56:34;14.18;;;8.85;;
59659;SDS011;45534;52.690;6.268;2022-08-19T04:59:00;16.58;;;9.88;;
59659;SDS011;45534;52.690;6.268;2022-08-19T05:01:30;13.50;;;9.63;;
59659;SDS011;45534;52.690;6.268;2022-08-19T05:03:58;17.20;;;10.18;;
59659;SDS011;45534;52.690;6.268;2022-08-19T05:06:25;11.60;;;8.23;;
59659;SDS011;45534;52.690;6.268;2022-08-19T05:08:51;15.00;;;7.80;;
59659;SDS011;45534;52.690;6.268;2022-08-19T05:13:48;14.18;;;9.85;;
59659;SDS011;45534;52.690;6.268;2022-08-19T05:16:14;16.73;;;9.52;;
59659;SDS011;45534;52.690;6.268;2022-08-19T05:18:42;15.10;;;9.35;;
59659;SDS011;45534;52.690;6.268;2022-08-19T05:21:28;14.85;;;9.05;;
59659;SDS011;45534;52.690;6.268;2022-08-19T05:24:13;16.02;;;11.20;;
59659;SDS011;45534;52.690;6.268;2022-08-19T05:26:40;17.25;;;10.25;;
59659;SDS011;45534;52.690;6.268;2022-08-19T05:29:08;14.90;;;9.15;;
59659;SDS011;45534;52.690;6.268;2022-08-19T05:31:35;14.65;;;8.38;;
59659;SDS011;45534;52.690;6.268;2022-08-19T05:34:03;16.05;;;9.80;;
59659;SDS011;45534;52.690;6.268;2022-08-19T05:36:33;14.52;;;8.20;;
59659;SDS011;45534;52.690;6.268;2022-08-19T05:39:00;16.30;;;9.27;;
59659;SDS011;45534;52.690;6.268;2022-08-19T05:41:28;20.35;;;10.68;;
59659;SDS011;45534;52.690;6.268;2022-08-19T05:44:00;16.23;;;9.55;;
59659;SDS011;45534;52.690;6.268;2022-08-19T05:46:31;15.77;;;12.45;;
59659;SDS011;45534;52.690;6.268;2022-08-19T05:48:56;18.13;;;11.80;;
59659;SDS011;45534;52.690;6.268;2022-08-19T05:51:23;17.35;;;12.10;;
59659;SDS011;45534;52.690;6.268;2022-08-19T05:53:50;16.10;;;11.02;;
59659;SDS011;45534;52.690;6.268;2022-08-19T05:56:16;16.42;;;10.88;;
59659;SDS011;45534;52.690;6.268;2022-08-19T05:58:43;39.47;;;35.97;;
59659;SDS011;45534;52.690;6.268;2022-08-19T06:01:14;16.88;;;12.38;;
59659;SDS011;45534;52.690;6.268;2022-08-19T06:03:41;18.17;;;10.57;;
59659;SDS011;45534;52.690;6.268;2022-08-19T06:06:07;19.48;;;10.90;;
59659;SDS011;45534;52.690;6.268;2022-08-19T06:08:35;16.25;;;11.68;;
59659;SDS011;45534;52.690;6.268;2022-08-19T06:14:09;17.08;;;9.65;;
59659;SDS011;45534;52.690;6.268;2022-08-19T06:16:38;19.88;;;11.02;;
59659;SDS011;45534;52.690;6.268;2022-08-19T06:19:07;21.98;;;12.32;;
59659;SDS011;45534;52.690;6.268;2022-08-19T06:21:35;18.42;;;12.25;;
59659;SDS011;45534;52.690;6.268;2022-08-19T06:24:03;18.88;;;11.88;;
59659;SDS011;45534;52.690;6.268;2022-08-19T06:26:30;17.98;;;10.88;;
59659;SDS011;45534;52.690;6.268;2022-08-19T06:28:56;20.42;;;13.05;;
59659;SDS011;45534;52.690;6.268;2022-08-19T06:31:24;20.98;;;13.23;;
59659;SDS011;45534;52.690;6.268;2022-08-19T06:33:51;20.75;;;11.60;;
59659;SDS011;45534;52.690;6.268;2022-08-19T06:36:22;14.88;;;10.18;;
59659;SDS011;45534;52.690;6.268;2022-08-19T06:38:55;18.45;;;12.32;;
59659;SDS011;45534;52.690;6.268;2022-08-19T06:41:22;20.73;;;12.15;;
59659;SDS011;45534;52.690;6.268;2022-08-19T06:43:49;35.35;;;15.52;;
59659;SDS011;45534;52.690;6.268;2022-08-19T06:46:15;24.48;;;14.90;;
59659;SDS011;45534;52.690;6.268;2022-08-19T06:48:42;19.17;;;12.95;;
59659;SDS011;45534;52.690;6.268;2022-08-19T06:51:08;20.67;;;13.20;;
59659;SDS011;45534;52.690;6.268;2022-08-19T06:53:34;19.45;;;11.88;;
59659;SDS011;45534;52.690;6.268;2022-08-19T06:56:00;25.85;;;14.35;;
59659;SDS011;45534;52.690;6.268;2022-08-19T06:58:30;18.42;;;13.68;;
59659;SDS011;45534;52.690;6.268;2022-08-19T07:00:58;22.02;;;12.45;;
59659;SDS011;45534;52.690;6.268;2022-08-19T07:03:27;21.67;;;13.82;;
59659;SDS011;45534;52.690;6.268;2022-08-19T07:05:56;15.15;;;11.30;;
59659;SDS011;45534;52.690;6.268;2022-08-19T07:08:22;22.00;;;15.02;;
59659;SDS011;45534;52.690;6.268;2022-08-19T07:10:47;17.52;;;13.07;;
59659;SDS011;45534;52.690;6.268;2022-08-19T07:13:14;18.38;;;13.93;;
59659;SDS011;45534;52.690;6.268;2022-08-19T07:15:39;20.35;;;13.52;;
59659;SDS011;45534;52.690;6.268;2022-08-19T07:18:05;18.05;;;11.95;;
59659;SDS011;45534;52.690;6.268;2022-08-19T07:20:31;21.98;;;16.45;;
59659;SDS011;45534;52.690;6.268;2022-08-19T07:22:57;40.13;;;36.50;;
59659;SDS011;45534;52.690;6.268;2022-08-19T07:25:23;19.27;;;14.15;;
59659;SDS011;45534;52.690;6.268;2022-08-19T07:27:49;37.15;;;33.45;;
59659;SDS011;45534;52.690;6.268;2022-08-19T07:30:15;23.58;;;17.05;;
59659;SDS011;45534;52.690;6.268;2022-08-19T07:32:41;20.77;;;14.13;;
59659;SDS011;45534;52.690;6.268;2022-08-19T07:35:08;20.02;;;17.35;;
59659;SDS011;45534;52.690;6.268;2022-08-19T07:37:35;19.33;;;13.10;;
59659;SDS011;45534;52.690;6.268;2022-08-19T07:40:03;20.83;;;10.60;;
59659;SDS011;45534;52.690;6.268;2022-08-19T07:42:30;35.45;;;31.58;;
59659;SDS011;45534;52.690;6.268;2022-08-19T07:44:57;33.90;;;30.80;;
59659;SDS011;45534;52.690;6.268;2022-08-19T07:47:23;35.60;;;32.28;;
59659;SDS011;45534;52.690;6.268;2022-08-19T07:49:49;18.95;;;12.65;;
59659;SDS011;45534;52.690;6.268;2022-08-19T07:52:14;35.88;;;32.28;;
59659;SDS011;45534;52.690;6.268;2022-08-19T07:54:41;35.83;;;32.25;;
59659;SDS011;45534;52.690;6.268;2022-08-19T07:57:07;39.10;;;35.17;;
59659;SDS011;45534;52.690;6.268;2022-08-19T07:59:33;60.53;;;33.42;;
59659;SDS011;45534;52.690;6.268;2022-08-19T08:01:59;34.22;;;31.05;;
59659;SDS011;45534;52.690;6.268;2022-08-19T08:04:25;37.03;;;33.33;;
59659;SDS011;45534;52.690;6.268;2022-08-19T08:07:10;35.38;;;31.88;;
59659;SDS011;45534;52.690;6.268;2022-08-19T08:09:54;37.65;;;34.10;;
59659;SDS011;45534;52.690;6.268;2022-08-19T08:12:22;36.60;;;33.15;;
59659;SDS011;45534;52.690;6.268;2022-08-19T08:14:55;21.98;;;15.73;;
59659;SDS011;45534;52.690;6.268;2022-08-19T08:17:25;36.92;;;33.45;;
59659;SDS011;45534;52.690;6.268;2022-08-19T08:19:52;34.70;;;31.58;;
59659;SDS011;45534;52.690;6.268;2022-08-19T08:22:19;38.38;;;34.97;;
59659;SDS011;45534;52.690;6.268;2022-08-19T08:25:16;40.08;;;36.55;;
59659;SDS011;45534;52.690;6.268;2022-08-19T08:27:44;41.55;;;37.80;;
59659;SDS011;45534;52.690;6.268;2022-08-19T08:30:19;39.30;;;35.85;;
59659;SDS011;45534;52.690;6.268;2022-08-19T08:32:46;38.78;;;35.17;;
59659;SDS011;45534;52.690;6.268;2022-08-19T08:35:14;43.15;;;39.40;;
59659;SDS011;45534;52.690;6.268;2022-08-19T08:37:42;40.80;;;36.78;;
59659;SDS011;45534;52.690;6.268;2022-08-19T08:43:03;42.30;;;38.63;;
59659;SDS011;45534;52.690;6.268;2022-08-19T08:45:33;36.67;;;33.15;;
59659;SDS011;45534;52.690;6.268;2022-08-19T08:48:16;25.42;;;18.38;;
59659;SDS011;45534;52.690;6.268;2022-08-19T08:50:47;35.53;;;32.47;;
59659;SDS011;45534;52.690;6.268;2022-08-19T08:53:17;39.55;;;35.75;;
59659;SDS011;45534;52.690;6.268;2022-08-19T08:55:44;34.17;;;30.85;;
59659;SDS011;45534;52.690;6.268;2022-08-19T08:58:16;33.20;;;29.65;;
59659;SDS011;45534;52.690;6.268;2022-08-19T09:00:49;33.50;;;30.30;;
59659;SDS011;45534;52.690;6.268;2022-08-19T09:03:27;32.50;;;29.60;;
59659;SDS011;45534;52.690;6.268;2022-08-19T09:08:26;30.85;;;27.52;;
59659;SDS011;45534;52.690;6.268;2022-08-19T09:11:15;32.28;;;29.08;;
59659;SDS011;45534;52.690;6.268;2022-08-19T09:13:54;34.45;;;31.08;;
59659;SDS011;45534;52.690;6.268;2022-08-19T09:16:22;32.58;;;29.20;;
59659;SDS011;45534;52.690;6.268;2022-08-19T09:18:52;31.35;;;28.35;;
59659;SDS011;45534;52.690;6.268;2022-08-19T09:21:30;34.15;;;30.95;;
59659;SDS011;45534;52.690;6.268;2022-08-19T09:23:57;35.80;;;32.17;;
59659;SDS011;45534;52.690;6.268;2022-08-19T09:26:23;33.03;;;29.83;;
59659;SDS011;45534;52.690;6.268;2022-08-19T09:28:50;30.92;;;27.65;;
59659;SDS011;45534;52.690;6.268;2022-08-19T09:31:24;33.25;;;29.23;;
59659;SDS011;45534;52.690;6.268;2022-08-19T09:33:52;28.88;;;26.10;;
59659;SDS011;45534;52.690;6.268;2022-08-19T09:36:22;29.98;;;27.02;;
59659;SDS011;45534;52.690;6.268;2022-08-19T09:38:50;29.90;;;26.77;;
59659;SDS011;45534;52.690;6.268;2022-08-19T09:41:17;29.67;;;26.80;;
59659;SDS011;45534;52.690;6.268;2022-08-19T09:43:45;28.08;;;25.30;;
59659;SDS011;45534;52.690;6.268;2022-08-19T09:46:14;26.83;;;24.02;;
59659;SDS011;45534;52.690;6.268;2022-08-19T09:48:41;32.67;;;29.42;;
59659;SDS011;45534;52.690;6.268;2022-08-19T09:51:11;31.63;;;27.60;;
59659;SDS011;45534;52.690;6.268;2022-08-19T09:53:44;27.20;;;24.55;;
59659;SDS011;45534;52.690;6.268;2022-08-19T09:56:11;29.10;;;26.25;;
59659;SDS011;45534;52.690;6.268;2022-08-19T09:58:38;29.50;;;26.42;;
59659;SDS011;45534;52.690;6.268;2022-08-19T10:01:05;32.67;;;29.58;;
59659;SDS011;45534;52.690;6.268;2022-08-19T10:03:32;32.25;;;28.95;;
59659;SDS011;45534;52.690;6.268;2022-08-19T10:06:00;33.17;;;28.13;;
59659;SDS011;45534;52.690;6.268;2022-08-19T10:08:30;31.48;;;28.15;;
59659;SDS011;45534;52.690;6.268;2022-08-19T10:10:58;30.67;;;27.55;;
59659;SDS011;45534;52.690;6.268;2022-08-19T10:13:26;32.97;;;29.75;;
59659;SDS011;45534;52.690;6.268;2022-08-19T10:15:56;33.88;;;30.60;;
59659;SDS011;45534;52.690;6.268;2022-08-19T10:18:26;32.40;;;29.48;;
59659;SDS011;45534;52.690;6.268;2022-08-19T10:21:01;34.38;;;30.98;;
59659;SDS011;45534;52.690;6.268;2022-08-19T10:23:33;37.28;;;33.88;;
59659;SDS011;45534;52.690;6.268;2022-08-19T10:26:00;34.45;;;31.25;;
59659;SDS011;45534;52.690;6.268;2022-08-19T10:28:26;39.00;;;34.95;;
59659;SDS011;45534;52.690;6.268;2022-08-19T10:30:52;35.75;;;32.55;;
59659;SDS011;45534;52.690;6.268;2022-08-19T10:33:18;35.45;;;31.77;;
59659;SDS011;45534;52.690;6.268;2022-08-19T10:35:43;37.58;;;34.13;;
59659;SDS011;45534;52.690;6.268;2022-08-19T10:38:11;33.28;;;30.02;;
59659;SDS011;45534;52.690;6.268;2022-08-19T10:40:37;36.28;;;32.78;;
59659;SDS011;45534;52.690;6.268;2022-08-19T10:43:03;35.72;;;32.03;;
59659;SDS011;45534;52.690;6.268;2022-08-19T10:45:28;34.65;;;31.10;;
59659;SDS011;45534;52.690;6.268;2022-08-19T10:47:54;34.60;;;31.42;;
59659;SDS011;45534;52.690;6.268;2022-08-19T10:50:20;34.90;;;31.58;;
59659;SDS011;45534;52.690;6.268;2022-08-19T10:53:05;34.40;;;30.30;;
59659;SDS011;45534;52.690;6.268;2022-08-19T10:55:34;35.15;;;32.03;;
59659;SDS011;45534;52.690;6.268;2022-08-19T10:58:19;32.50;;;29.48;;
59659;SDS011;45534;52.690;6.268;2022-08-19T11:00:54;34.03;;;30.45;;
59659;SDS011;45534;52.690;6.268;2022-08-19T11:03:21;30.83;;;27.85;;
59659;SDS011;45534;52.690;6.268;2022-08-19T11:05:56;34.40;;;31.10;;
59659;SDS011;45534;52.690;6.268;2022-08-19T11:08:26;38.28;;;34.67;;
59659;SDS011;45534;52.690;6.268;2022-08-19T11:10:52;37.47;;;33.67;;
59659;SDS011;45534;52.690;6.268;2022-08-19T11:13:26;35.35;;;31.90;;
59659;SDS011;45534;52.690;6.268;2022-08-19T11:16:00;35.92;;;32.55;;
59659;SDS011;45534;52.690;6.268;2022-08-19T11:18:28;37.00;;;33.30;;
59659;SDS011;45534;52.690;6.268;2022-08-19T11:20:54;42.83;;;35.47;;
59659;SDS011;45534;52.690;6.268;2022-08-19T11:23:19;35.40;;;31.85;;
59659;SDS011;45534;52.690;6.268;2022-08-19T11:25:45;33.85;;;30.70;;
59659;SDS011;45534;52.690;6.268;2022-08-19T11:28:11;34.72;;;31.35;;
59659;SDS011;45534;52.690;6.268;2022-08-19T11:30:38;38.35;;;34.63;;
59659;SDS011;45534;52.690;6.268;2022-08-19T11:33:04;38.15;;;34.58;;
59659;SDS011;45534;52.690;6.268;2022-08-19T11:35:30;30.55;;;27.17;;
59659;SDS011;45534;52.690;6.268;2022-08-19T11:37:55;38.88;;;34.95;;
59659;SDS011;45534;52.690;6.268;2022-08-19T11:40:26;37.25;;;33.72;;
59659;SDS011;45534;52.690;6.268;2022-08-19T11:42:52;31.67;;;28.35;;
59659;SDS011;45534;52.690;6.268;2022-08-19T11:45:21;34.83;;;31.60;;
59659;SDS011;45534;52.690;6.268;2022-08-19T11:47:48;30.73;;;27.58;;
59659;SDS011;45534;52.690;6.268;2022-08-19T11:50:14;28.17;;;25.15;;
59659;SDS011;45534;52.690;6.268;2022-08-19T11:52:40;40.03;;;35.97;;
59659;SDS011;45534;52.690;6.268;2022-08-19T11:55:06;36.13;;;32.63;;
59659;SDS011;45534;52.690;6.268;2022-08-19T11:57:32;29.85;;;26.63;;
59659;SDS011;45534;52.690;6.268;2022-08-19T11:59:58;28.00;;;25.27;;
59659;SDS011;45534;52.690;6.268;2022-08-19T12:02:24;28.08;;;25.10;;
59659;SDS011;45534;52.690;6.268;2022-08-19T12:04:50;31.55;;;28.60;;
59659;SDS011;45534;52.690;6.268;2022-08-19T12:07:16;34.05;;;30.70;;
59659;SDS011;45534;52.690;6.268;2022-08-19T12:09:41;37.47;;;33.88;;
59659;SDS011;45534;52.690;6.268;2022-08-19T12:12:07;33.80;;;29.80;;
59659;SDS011;45534;52.690;6.268;2022-08-19T12:14:34;33.58;;;27.00;;
59659;SDS011;45534;52.690;6.268;2022-08-19T12:17:00;29.63;;;26.83;;
59659;SDS011;45534;52.690;6.268;2022-08-19T12:19:27;30.88;;;27.77;;
59659;SDS011;45534;52.690;6.268;2022-08-19T12:21:53;29.88;;;26.63;;
59659;SDS011;45534;52.690;6.268;2022-08-19T12:24:25;24.38;;;21.90;;
59659;SDS011;45534;52.690;6.268;2022-08-19T12:26:51;24.98;;;22.35;;
59659;SDS011;45534;52.690;6.268;2022-08-19T12:29:18;20.25;;;18.17;;
59659;SDS011;45534;52.690;6.268;2022-08-19T12:31:44;24.52;;;22.02;;
59659;SDS011;45534;52.690;6.268;2022-08-19T12:34:10;21.42;;;18.65;;
59659;SDS011;45534;52.690;6.268;2022-08-19T12:36:36;18.92;;;17.02;;
59659;SDS011;45534;52.690;6.268;2022-08-19T12:39:02;20.75;;;18.58;;
59659;SDS011;45534;52.690;6.268;2022-08-19T12:41:29;21.70;;;19.50;;
59659;SDS011;45534;52.690;6.268;2022-08-19T12:43:54;24.80;;;21.13;;
59659;SDS011;45534;52.690;6.268;2022-08-19T12:46:20;17.52;;;15.27;;
59659;SDS011;45534;52.690;6.268;2022-08-19T12:48:46;19.83;;;14.50;;
59659;SDS011;45534;52.690;6.268;2022-08-19T12:51:13;16.85;;;12.75;;
59659;SDS011;45534;52.690;6.268;2022-08-19T12:53:41;23.73;;;21.30;;
59659;SDS011;45534;52.690;6.268;2022-08-19T12:56:09;22.30;;;19.13;;
59659;SDS011;45534;52.690;6.268;2022-08-19T12:58:36;15.77;;;13.23;;
59659;SDS011;45534;52.690;6.268;2022-08-19T13:01:08;20.83;;;18.70;;
59659;SDS011;45534;52.690;6.268;2022-08-19T13:03:36;20.60;;;14.85;;
59659;SDS011;45534;52.690;6.268;2022-08-19T13:06:02;20.58;;;13.88;;
59659;SDS011;45534;52.690;6.268;2022-08-19T13:08:28;15.93;;;14.23;;
59659;SDS011;45534;52.690;6.268;2022-08-19T13:10:53;17.73;;;15.98;;
59659;SDS011;45534;52.690;6.268;2022-08-19T13:13:20;17.38;;;15.55;;
59659;SDS011;45534;52.690;6.268;2022-08-19T13:15:46;16.73;;;12.18;;
59659;SDS011;45534;52.690;6.268;2022-08-19T13:18:12;21.58;;;15.18;;
59659;SDS011;45534;52.690;6.268;2022-08-19T13:20:39;22.00;;;16.85;;
59659;SDS011;45534;52.690;6.268;2022-08-19T13:23:08;15.60;;;14.00;;
59659;SDS011;45534;52.690;6.268;2022-08-19T13:25:34;16.88;;;14.23;;
59659;SDS011;45534;52.690;6.268;2022-08-19T13:28:01;16.83;;;15.13;;
59659;SDS011;45534;52.690;6.268;2022-08-19T13:30:27;18.92;;;16.88;;
59659;SDS011;45534;52.690;6.268;2022-08-19T13:33:11;19.38;;;17.42;;
59659;SDS011;45534;52.690;6.268;2022-08-19T13:35:44;22.83;;;19.75;;
59659;SDS011;45534;52.690;6.268;2022-08-19T13:38:22;21.00;;;17.63;;
59659;SDS011;45534;52.690;6.268;2022-08-19T13:40:49;17.33;;;15.32;;
59659;SDS011;45534;52.690;6.268;2022-08-19T13:43:17;19.45;;;14.57;;
59659;SDS011;45534;52.690;6.268;2022-08-19T13:45:44;17.02;;;14.63;;
59659;SDS011;45534;52.690;6.268;2022-08-19T13:48:10;16.80;;;15.15;;
59659;SDS011;45534;52.690;6.268;2022-08-19T13:50:40;19.42;;;15.90;;
59659;SDS011;45534;52.690;6.268;2022-08-19T13:53:09;24.33;;;20.33;;
59659;SDS011;45534;52.690;6.268;2022-08-19T13:55:36;25.92;;;23.23;;
59659;SDS011;45534;52.690;6.268;2022-08-19T13:58:04;28.67;;;24.23;;
59659;SDS011;45534;52.690;6.268;2022-08-19T14:00:31;27.75;;;24.77;;
59659;SDS011;45534;52.690;6.268;2022-08-19T14:03:00;27.48;;;24.75;;
59659;SDS011;45534;52.690;6.268;2022-08-19T14:05:26;29.77;;;26.73;;
59659;SDS011;45534;52.690;6.268;2022-08-19T14:07:53;32.20;;;26.20;;
59659;SDS011;45534;52.690;6.268;2022-08-19T14:10:20;23.02;;;20.73;;
59659;SDS011;45534;52.690;6.268;2022-08-19T14:12:48;23.15;;;20.77;;
59659;SDS011;45534;52.690;6.268;2022-08-19T14:15:14;22.30;;;19.77;;
59659;SDS011;45534;52.690;6.268;2022-08-19T14:17:41;23.33;;;20.85;;
59659;SDS011;45534;52.690;6.268;2022-08-19T14:20:08;27.60;;;24.58;;
59659;SDS011;45534;52.690;6.268;2022-08-19T14:22:39;24.02;;;19.63;;
59659;SDS011;45534;52.690;6.268;2022-08-19T14:25:10;21.17;;;19.05;;
59659;SDS011;45534;52.690;6.268;2022-08-19T14:27:38;21.88;;;19.38;;
59659;SDS011;45534;52.690;6.268;2022-08-19T14:30:06;22.02;;;19.73;;
59659;SDS011;45534;52.690;6.268;2022-08-19T14:32:33;22.05;;;19.73;;
59659;SDS011;45534;52.690;6.268;2022-08-19T14:34:59;20.50;;;18.25;;
59659;SDS011;45534;52.690;6.268;2022-08-19T14:37:25;24.08;;;21.67;;
59659;SDS011;45534;52.690;6.268;2022-08-19T14:39:50;31.77;;;21.92;;
59659;SDS011;45534;52.690;6.268;2022-08-19T14:42:16;29.48;;;24.95;;
59659;SDS011;45534;52.690;6.268;2022-08-19T14:44:42;29.38;;;26.23;;
59659;SDS011;45534;52.690;6.268;2022-08-19T14:47:08;29.35;;;25.90;;
59659;SDS011;45534;52.690;6.268;2022-08-19T14:49:35;29.40;;;26.15;;